ePrivacy and GPDR Cookie Consent by Cookie Consent
EmailTwitter


Observations de surface / Québec / CYUL (71627)

Régions: Québec | Canada | États-Unis | Europe | France | UK | Ailleurs
Station
Affichage
Infos & localisation pour CYUL (71627) | Aide pour décoder les METARs

Observations prises le 2022-07-03 à 04H00 UTC à MONTREAL INTL A, QB (CYUL)

Etat du ciel: quelques nuages.

Température: 20.0 Celsius

Point de rosée: 11.0 Celsius

Humidité relative: 56%

Vents: Sud-ouest à 20 km/h ou 11 noeuds.

Pression au niveau moyen de la mer: 101.11 kilopascals.

Calage altimétrique: 101.08 kilopascals ou 29.85 pouces de mercure.

Visibilité horizontale: 15.00 milles terrestres ou 24.00 kilomètres.

Observation METAR:

CYUL 030400Z 24011KT 15SM FEW090 FEW250 20/11 A2985 RMK AC1CI1 SLP111 DENSITY

ALT 900FT=